createdAt,value
2018-12-12T00:00:03.646Z,2.00
2018-12-12T00:01:03.581Z,2.07
2018-12-12T00:02:03.512Z,2.03
2018-12-12T00:03:03.450Z,2.03
2018-12-12T00:04:03.373Z,2.11
2018-12-12T00:05:03.307Z,2.06
2018-12-12T00:06:03.234Z,2.06
2018-12-12T00:07:03.169Z,2.07
2018-12-12T00:08:03.108Z,2.10
2018-12-12T00:09:03.031Z,2.14
2018-12-12T00:10:02.977Z,2.06
2018-12-12T00:11:02.895Z,2.17
2018-12-12T00:12:02.834Z,2.15
2018-12-12T00:13:02.764Z,2.06
2018-12-12T00:14:02.701Z,2.11
2018-12-12T00:15:02.620Z,2.14
2018-12-12T00:16:02.553Z,2.19
2018-12-12T00:17:02.484Z,2.15
2018-12-12T00:18:02.430Z,2.18
2018-12-12T00:19:02.345Z,2.21
2018-12-12T00:20:02.276Z,2.21
2018-12-12T00:21:02.208Z,2.14
2018-12-12T00:22:02.143Z,2.10
2018-12-12T00:23:02.066Z,2.07
2018-12-12T00:24:02.004Z,2.11
2018-12-12T00:25:01.934Z,2.14
2018-12-12T00:26:01.878Z,2.11
2018-12-12T00:27:01.805Z,2.07
2018-12-12T00:28:01.727Z,2.17
2018-12-12T00:29:01.657Z,2.11
2018-12-12T00:30:01.597Z,2.07
2018-12-12T00:31:01.528Z,2.19
2018-12-12T00:32:01.459Z,2.12
2018-12-12T00:33:01.391Z,2.10
2018-12-12T00:34:01.363Z,2.07
2018-12-12T00:35:01.260Z,2.01
2018-12-12T00:36:01.185Z,2.17
2018-12-12T00:37:01.113Z,2.03
2018-12-12T00:38:01.038Z,2.11
2018-12-12T00:39:00.971Z,2.19
2018-12-12T00:40:00.904Z,2.12
2018-12-12T00:41:00.843Z,2.15
2018-12-12T00:42:00.766Z,2.21
2018-12-12T00:43:00.696Z,2.25
2018-12-12T00:44:00.628Z,2.18
2018-12-12T00:45:00.561Z,2.24
2018-12-12T00:46:00.489Z,2.29
2018-12-12T00:47:00.422Z,2.29
2018-12-12T00:48:00.352Z,2.33
2018-12-12T00:49:00.285Z,2.22
2018-12-12T00:50:00.221Z,2.24
2018-12-12T00:51:00.157Z,2.22
2018-12-12T00:52:00.084Z,2.24
2018-12-12T00:53:00.008Z,2.17
2018-12-12T00:53:59.940Z,2.10
2018-12-12T00:54:59.874Z,2.18
2018-12-12T00:55:59.811Z,2.15
2018-12-12T00:56:59.782Z,2.12
2018-12-12T00:57:59.664Z,2.14
2018-12-12T00:58:59.597Z,2.17
2018-12-12T00:59:59.531Z,2.25
2018-12-12T01:00:59.457Z,2.24
2018-12-12T01:01:59.392Z,2.29
2018-12-12T01:02:59.322Z,2.21
2018-12-12T01:03:59.253Z,2.22
2018-12-12T01:04:59.181Z,2.24
2018-12-12T01:05:59.119Z,2.17
2018-12-12T01:06:59.046Z,2.11
2018-12-12T01:07:58.992Z,2.17
2018-12-12T01:08:58.916Z,2.11
2018-12-12T01:09:58.846Z,2.19
2018-12-12T01:10:58.794Z,2.14
2018-12-12T01:11:58.717Z,2.15
2018-12-12T01:12:58.637Z,2.11
2018-12-12T01:13:58.573Z,2.17
2018-12-12T01:14:58.503Z,2.17
2018-12-12T01:15:58.435Z,2.17
2018-12-12T01:16:58.362Z,2.11
2018-12-12T01:17:58.293Z,2.21
2018-12-12T01:18:58.229Z,2.25
2018-12-12T01:19:58.152Z,2.24
2018-12-12T01:20:58.087Z,2.28
2018-12-12T01:21:58.018Z,2.22
2018-12-12T01:22:57.951Z,2.25
2018-12-12T01:23:57.875Z,2.15
2018-12-12T01:24:57.811Z,2.10
2018-12-12T01:25:57.749Z,2.19
2018-12-12T01:26:57.673Z,2.15
2018-12-12T01:27:57.606Z,2.18
2018-12-12T01:28:57.536Z,2.10
2018-12-12T01:29:57.465Z,2.17
2018-12-12T01:30:57.399Z,2.10
2018-12-12T01:31:57.333Z,2.03
2018-12-12T01:32:57.271Z,2.06
2018-12-12T01:33:57.216Z,2.10
2018-12-12T01:34:57.127Z,2.17
2018-12-12T01:35:57.059Z,2.04
2018-12-12T01:36:56.988Z,2.12
2018-12-12T01:37:56.922Z,2.12
2018-12-12T01:38:56.848Z,2.12
2018-12-12T01:39:56.781Z,2.06
2018-12-12T01:40:56.716Z,2.06
2018-12-12T01:41:56.653Z,2.14
2018-12-12T01:42:56.577Z,2.24
2018-12-12T01:43:56.508Z,2.19
2018-12-12T01:44:56.442Z,2.15
2018-12-12T01:45:56.370Z,2.15
2018-12-12T01:46:56.296Z,2.12
2018-12-12T01:47:56.247Z,2.14
2018-12-12T01:48:56.165Z,2.11
2018-12-12T01:49:56.099Z,2.14
2018-12-12T01:50:56.031Z,2.19
2018-12-12T01:51:55.964Z,2.15
2018-12-12T01:52:55.904Z,2.29
2018-12-12T01:53:55.819Z,2.21
2018-12-12T01:54:55.753Z,2.18
2018-12-12T01:55:55.684Z,2.24
2018-12-12T01:56:55.621Z,2.22
2018-12-12T01:57:55.546Z,2.19
2018-12-12T01:58:55.481Z,2.28
2018-12-12T01:59:55.411Z,2.30
2018-12-12T02:00:55.342Z,2.25
2018-12-12T02:01:55.269Z,2.22
2018-12-12T02:02:55.206Z,2.35
2018-12-12T02:03:55.137Z,2.29
2018-12-12T02:04:55.072Z,2.21
2018-12-12T02:05:55.007Z,2.19
2018-12-12T02:06:54.926Z,2.30
2018-12-12T02:07:54.881Z,2.17
2018-12-12T02:08:54.794Z,2.17
2018-12-12T02:09:54.728Z,2.15
2018-12-12T02:10:54.665Z,2.10
2018-12-12T02:11:54.617Z,2.12
2018-12-12T02:12:54.519Z,2.19
2018-12-12T02:13:54.454Z,2.29
2018-12-12T02:14:54.383Z,2.19
2018-12-12T02:15:54.323Z,2.22
2018-12-12T02:16:54.243Z,2.24
2018-12-12T02:17:54.178Z,2.15
2018-12-12T02:18:54.110Z,2.17
2018-12-12T02:19:54.044Z,2.17
2018-12-12T02:20:53.972Z,2.11
2018-12-12T02:21:53.905Z,2.10
2018-12-12T02:22:53.837Z,2.18
2018-12-12T02:23:53.768Z,2.14
2018-12-12T02:24:53.705Z,2.15
2018-12-12T02:25:53.643Z,2.11
2018-12-12T02:26:53.569Z,2.10
2018-12-12T02:27:53.503Z,2.18
2018-12-12T02:28:53.426Z,2.10
2018-12-12T02:29:53.358Z,2.15
2018-12-12T02:30:53.302Z,2.11
2018-12-12T02:31:53.220Z,2.17
2018-12-12T02:32:53.151Z,2.14
2018-12-12T02:33:53.084Z,2.17
2018-12-12T02:34:53.018Z,2.24
2018-12-12T02:35:52.942Z,2.30
2018-12-12T02:36:52.877Z,2.21
2018-12-12T02:37:52.809Z,2.19
2018-12-12T02:38:52.744Z,2.18
2018-12-12T02:39:52.680Z,2.28
2018-12-12T02:40:52.604Z,2.15
2018-12-12T02:41:52.537Z,2.17
2018-12-12T02:42:52.467Z,2.22
2018-12-12T02:43:52.400Z,2.17
2018-12-12T02:44:52.338Z,2.17
2018-12-12T02:45:52.271Z,2.12
2018-12-12T02:46:52.192Z,2.10
2018-12-12T02:47:52.128Z,2.14
2018-12-12T02:48:52.057Z,2.01
2018-12-12T02:49:51.991Z,1.97
2018-12-12T02:50:51.915Z,1.99
2018-12-12T02:51:51.848Z,2.04
2018-12-12T02:52:51.796Z,1.95
2018-12-12T02:53:51.740Z,2.12
2018-12-12T02:54:51.659Z,2.00
2018-12-12T02:55:51.578Z,2.04
2018-12-12T02:56:51.507Z,2.00
2018-12-12T02:57:51.439Z,2.04
2018-12-12T02:58:51.378Z,2.11
2018-12-12T02:59:51.310Z,2.03
2018-12-12T03:00:51.243Z,2.07
2018-12-12T03:01:51.166Z,2.10
2018-12-12T03:02:51.100Z,2.10
2018-12-12T03:03:51.029Z,2.11
2018-12-12T03:04:50.964Z,2.00
2018-12-12T03:05:50.890Z,2.04
2018-12-12T03:06:50.822Z,2.07
2018-12-12T03:07:50.754Z,2.11
2018-12-12T03:08:50.690Z,2.12
2018-12-12T03:09:50.614Z,2.10
2018-12-12T03:10:50.549Z,2.12
2018-12-12T03:11:50.480Z,2.10
2018-12-12T03:12:50.420Z,2.11
2018-12-12T03:13:50.341Z,2.10
2018-12-12T03:14:50.273Z,2.15
2018-12-12T03:15:50.204Z,2.35
2018-12-12T03:16:50.141Z,2.22
2018-12-12T03:17:50.072Z,2.28
2018-12-12T03:18:50.011Z,2.24
2018-12-12T03:19:50.495Z,2.25
2018-12-12T03:20:49.862Z,2.24
2018-12-12T03:21:49.795Z,2.25
2018-12-12T03:22:49.728Z,2.24
2018-12-12T03:23:49.671Z,2.24
2018-12-12T03:24:49.586Z,2.18
2018-12-12T03:25:49.520Z,2.25
2018-12-12T03:26:49.451Z,2.17
2018-12-12T03:27:49.398Z,2.15
2018-12-12T03:28:49.308Z,2.10
2018-12-12T03:29:49.248Z,2.15
2018-12-12T03:30:49.183Z,2.18
2018-12-12T03:31:49.116Z,2.33
2018-12-12T03:32:49.038Z,2.36
2018-12-12T03:33:48.971Z,2.25
2018-12-12T03:34:48.922Z,2.25
2018-12-12T03:35:48.836Z,2.30
2018-12-12T03:36:48.772Z,2.33
2018-12-12T03:37:48.711Z,2.19
2018-12-12T03:38:48.638Z,2.28
2018-12-12T03:39:48.561Z,2.17
2018-12-12T03:40:48.511Z,2.30
2018-12-12T03:41:48.443Z,2.33
2018-12-12T03:42:48.360Z,2.43
2018-12-12T03:43:48.284Z,2.48
2018-12-12T03:44:48.225Z,2.45
2018-12-12T03:45:48.147Z,2.51
2018-12-12T03:46:48.098Z,2.48
2018-12-12T03:47:48.009Z,2.42
2018-12-12T03:48:47.942Z,2.42
2018-12-12T03:49:47.877Z,2.40
2018-12-12T03:50:47.808Z,2.30
2018-12-12T03:51:47.745Z,2.32
2018-12-12T03:52:47.675Z,2.21
2018-12-12T03:53:47.610Z,2.25
2018-12-12T03:54:47.532Z,2.12
2018-12-12T03:55:47.470Z,2.10
2018-12-12T03:56:47.413Z,2.04
2018-12-12T03:57:47.333Z,2.14
2018-12-12T03:58:47.260Z,2.07
2018-12-12T03:59:47.191Z,2.12
2018-12-12T04:00:47.121Z,2.06
2018-12-12T04:01:47.067Z,2.04
2018-12-12T04:02:46.982Z,2.10
2018-12-12T04:03:46.916Z,1.99
2018-12-12T04:04:46.849Z,2.07
2018-12-12T04:05:46.788Z,2.11
2018-12-12T04:06:46.707Z,2.18
2018-12-12T04:07:46.643Z,2.14
2018-12-12T04:08:46.575Z,2.10
2018-12-12T04:09:46.504Z,2.10
2018-12-12T04:10:46.441Z,2.11
2018-12-12T04:11:46.382Z,2.01
2018-12-12T04:12:46.317Z,2.06
2018-12-12T04:13:46.230Z,2.07
2018-12-12T04:14:46.162Z,2.01
2018-12-12T04:15:46.115Z,1.97
2018-12-12T04:16:46.039Z,2.06
2018-12-12T04:17:45.955Z,2.00
2018-12-12T04:18:45.888Z,2.03
2018-12-12T04:19:45.819Z,1.92
2018-12-12T04:20:45.764Z,1.92
2018-12-12T04:21:45.681Z,1.93
2018-12-12T04:22:45.611Z,1.95
2018-12-12T04:23:45.547Z,2.04
2018-12-12T04:24:45.474Z,1.93
2018-12-12T04:25:45.404Z,2.01
2018-12-12T04:26:45.337Z,2.07
2018-12-12T04:27:45.269Z,2.14
2018-12-12T04:28:45.214Z,2.19
2018-12-12T04:29:45.137Z,2.19
2018-12-12T04:30:45.070Z,2.07
2018-12-12T04:31:45.006Z,2.15
2018-12-12T04:32:44.924Z,2.03
2018-12-12T04:33:44.857Z,2.03
2018-12-12T04:34:44.821Z,2.00
2018-12-12T04:35:44.724Z,2.06
2018-12-12T04:36:44.653Z,2.15
2018-12-12T04:37:44.584Z,2.15
2018-12-12T04:38:44.519Z,2.06
2018-12-12T04:39:44.448Z,2.17
2018-12-12T04:40:44.372Z,2.21
2018-12-12T04:41:44.308Z,2.11
2018-12-12T04:42:44.246Z,2.01
2018-12-12T04:43:44.175Z,2.11
2018-12-12T04:44:44.094Z,2.19
2018-12-12T04:45:44.034Z,2.14
2018-12-12T04:46:43.963Z,2.12
2018-12-12T04:47:43.895Z,2.14
2018-12-12T04:48:43.822Z,2.11
2018-12-12T04:49:43.757Z,2.14
2018-12-12T04:50:43.715Z,2.11
2018-12-12T04:51:43.642Z,2.11
2018-12-12T04:52:43.556Z,2.10
2018-12-12T04:53:43.499Z,2.19
2018-12-12T04:54:43.428Z,2.14
2018-12-12T04:55:43.345Z,2.18
2018-12-12T04:56:43.277Z,2.18
2018-12-12T04:57:43.209Z,2.10
2018-12-12T04:58:43.156Z,2.15
2018-12-12T04:59:43.070Z,2.21
2018-12-12T05:00:43.003Z,2.17
2018-12-12T05:01:42.935Z,2.12
2018-12-12T05:02:42.872Z,2.18
2018-12-12T05:03:42.798Z,2.14
2018-12-12T05:04:42.731Z,2.17
2018-12-12T05:05:42.665Z,2.11
2018-12-12T05:06:42.592Z,2.11
2018-12-12T05:07:42.534Z,2.17
2018-12-12T05:08:42.457Z,2.07
2018-12-12T05:09:42.411Z,2.11
2018-12-12T05:10:42.317Z,2.11
2018-12-12T05:11:42.250Z,2.07
2018-12-12T05:12:42.196Z,2.15
2018-12-12T05:13:42.144Z,2.07
2018-12-12T05:14:42.043Z,2.14
2018-12-12T05:15:41.970Z,2.10
2018-12-12T05:16:41.904Z,1.99
2018-12-12T05:17:41.835Z,2.11
2018-12-12T05:18:41.803Z,2.04
2018-12-12T05:19:41.759Z,2.10
2018-12-12T05:20:41.631Z,2.06
2018-12-12T05:21:41.574Z,2.15
2018-12-12T05:22:41.490Z,2.10
2018-12-12T05:23:41.426Z,2.11
2018-12-12T05:24:41.357Z,2.10
2018-12-12T05:25:41.288Z,2.03
2018-12-12T05:26:41.220Z,2.15
2018-12-12T05:27:41.152Z,2.04
2018-12-12T05:28:41.098Z,2.07
2018-12-12T05:29:41.012Z,1.99
2018-12-12T05:30:40.945Z,2.00
2018-12-12T05:31:40.878Z,2.10
2018-12-12T05:32:40.813Z,2.03
2018-12-12T05:33:40.740Z,2.11
2018-12-12T05:34:40.670Z,2.07
2018-12-12T05:35:40.607Z,2.10
2018-12-12T05:36:40.537Z,2.07
2018-12-12T05:37:40.465Z,2.07
2018-12-12T05:38:40.396Z,2.06
2018-12-12T05:39:40.329Z,2.01
2018-12-12T05:40:40.260Z,2.01
2018-12-12T05:41:40.188Z,2.04
2018-12-12T05:42:40.123Z,2.01
2018-12-12T05:43:40.053Z,1.91
2018-12-12T05:44:39.984Z,2.00
2018-12-12T05:45:39.923Z,1.95
2018-12-12T05:46:41.987Z,2.00
2018-12-12T05:47:39.779Z,2.03
2018-12-12T05:48:39.713Z,2.12
2018-12-12T05:49:39.641Z,2.07
2018-12-12T05:50:39.580Z,2.21
2018-12-12T05:51:39.507Z,2.18
2018-12-12T05:52:39.435Z,2.07
2018-12-12T05:53:39.366Z,2.01
2018-12-12T05:54:39.365Z,2.15
2018-12-12T05:55:39.237Z,2.04
2018-12-12T05:56:39.157Z,2.11
2018-12-12T05:57:39.096Z,2.14
2018-12-12T05:58:39.024Z,2.11
2018-12-12T05:59:38.972Z,2.14
2018-12-12T06:00:38.882Z,2.12
2018-12-12T06:01:38.819Z,2.18
2018-12-12T06:02:38.750Z,2.04
2018-12-12T06:03:38.692Z,2.04
2018-12-12T06:04:38.619Z,2.11
2018-12-12T06:05:38.546Z,2.14
2018-12-12T06:06:38.488Z,2.06
2018-12-12T06:07:38.416Z,2.10
2018-12-12T06:08:38.340Z,2.17
2018-12-12T06:09:38.273Z,2.15
2018-12-12T06:10:38.215Z,2.18
2018-12-12T06:11:38.908Z,2.24
2018-12-12T06:12:38.070Z,2.18
2018-12-12T06:13:37.997Z,2.18
2018-12-12T06:14:37.927Z,2.14
2018-12-12T06:15:37.855Z,2.17
2018-12-12T06:16:37.790Z,2.19
2018-12-12T06:17:37.727Z,2.18
2018-12-12T06:18:37.660Z,2.18
2018-12-12T06:19:37.583Z,2.17
2018-12-12T06:20:37.514Z,2.18
2018-12-12T06:21:37.447Z,2.22
2018-12-12T06:22:38.015Z,2.17
2018-12-12T06:23:37.321Z,2.11
2018-12-12T06:24:37.263Z,2.12
2018-12-12T06:25:37.193Z,2.15
2018-12-12T06:26:37.647Z,2.22
2018-12-12T06:27:37.037Z,2.21
2018-12-12T06:28:36.974Z,2.28
2018-12-12T06:29:36.910Z,2.25
2018-12-12T06:30:36.834Z,2.28
2018-12-12T06:31:36.765Z,2.35
2018-12-12T06:32:36.707Z,2.28
2018-12-12T06:33:36.640Z,2.33
2018-12-12T06:34:36.556Z,2.21
2018-12-12T06:35:36.491Z,2.18
2018-12-12T06:36:36.420Z,2.18
2018-12-12T06:37:36.357Z,2.14
2018-12-12T06:38:36.280Z,2.18
2018-12-12T06:39:36.216Z,2.25
2018-12-12T06:40:36.147Z,2.18
2018-12-12T06:41:36.079Z,2.25
2018-12-12T06:42:36.015Z,2.15
2018-12-12T06:43:35.947Z,2.15
2018-12-12T06:44:35.891Z,2.25
2018-12-12T06:45:35.805Z,2.19
2018-12-12T06:46:35.740Z,2.24
2018-12-12T06:47:35.669Z,2.30
2018-12-12T06:48:35.607Z,2.29
2018-12-12T06:49:35.528Z,2.35
2018-12-12T06:50:35.464Z,2.28
2018-12-12T06:51:35.417Z,2.32
2018-12-12T06:52:35.326Z,2.32
2018-12-12T06:53:35.272Z,2.24
2018-12-12T06:54:35.186Z,2.19
2018-12-12T06:55:35.137Z,2.32
2018-12-12T06:56:35.056Z,2.36
2018-12-12T06:57:34.999Z,2.33
2018-12-12T06:58:34.924Z,2.42
2018-12-12T06:59:34.853Z,2.43
2018-12-12T07:00:34.779Z,2.43
2018-12-12T07:01:34.713Z,2.47
2018-12-12T07:02:34.643Z,2.50
2018-12-12T07:03:34.584Z,2.43
2018-12-12T07:04:34.510Z,2.45
2018-12-12T07:05:34.437Z,2.51
2018-12-12T07:06:34.372Z,2.40
2018-12-12T07:07:34.304Z,2.51
2018-12-12T07:08:34.229Z,2.51
2018-12-12T07:09:34.163Z,2.51
2018-12-12T07:10:34.097Z,2.43
2018-12-12T07:11:34.028Z,2.43
2018-12-12T07:12:33.969Z,2.50
2018-12-12T07:13:35.798Z,2.50
2018-12-12T07:14:33.830Z,2.50
2018-12-12T07:15:33.755Z,2.43
2018-12-12T07:16:33.687Z,2.48
2018-12-12T07:17:33.622Z,2.53
2018-12-12T07:18:33.559Z,2.54
2018-12-12T07:19:33.480Z,2.55
2018-12-12T07:20:33.414Z,2.58
2018-12-12T07:21:33.344Z,2.51
2018-12-12T07:22:33.286Z,2.40
2018-12-12T07:23:33.207Z,2.43
2018-12-12T07:24:33.141Z,2.42
2018-12-12T07:25:33.072Z,2.47
2018-12-12T07:26:33.004Z,2.55
2018-12-12T07:27:32.944Z,2.61
2018-12-12T07:28:32.881Z,2.47
2018-12-12T07:29:32.812Z,2.43
2018-12-12T07:30:32.732Z,2.50
2018-12-12T07:31:32.662Z,2.40
2018-12-12T07:32:32.595Z,2.51
2018-12-12T07:33:32.539Z,2.51
2018-12-12T07:34:32.457Z,2.53
2018-12-12T07:35:32.406Z,2.50
2018-12-12T07:36:32.326Z,2.61
2018-12-12T07:37:32.252Z,2.48
2018-12-12T07:38:32.183Z,2.48
2018-12-12T07:39:32.117Z,2.58
2018-12-12T07:40:32.053Z,2.53
2018-12-12T07:41:31.983Z,2.48
2018-12-12T07:42:31.916Z,2.48
2018-12-12T07:43:31.850Z,2.54
2018-12-12T07:44:31.788Z,2.48
2018-12-12T07:45:31.709Z,2.53
2018-12-12T07:46:31.640Z,2.48
2018-12-12T07:47:31.572Z,2.48
2018-12-12T07:48:31.510Z,2.43
2018-12-12T07:49:31.433Z,2.39
2018-12-12T07:50:31.369Z,2.30
2018-12-12T07:51:31.301Z,2.40
2018-12-12T07:52:31.233Z,2.42
2018-12-12T07:53:31.159Z,2.43
2018-12-12T07:54:31.099Z,2.51
2018-12-12T07:55:31.026Z,2.53
2018-12-12T07:56:30.959Z,2.55
2018-12-12T07:57:30.895Z,2.60
2018-12-12T07:58:30.837Z,2.55
2018-12-12T07:59:30.761Z,2.61
2018-12-12T08:00:30.684Z,2.60
2018-12-12T08:01:30.618Z,2.42
2018-12-12T08:02:30.554Z,2.54
2018-12-12T08:03:30.496Z,2.47
2018-12-12T08:04:30.409Z,2.39
2018-12-12T08:05:30.346Z,2.47
2018-12-12T08:06:30.276Z,2.51
2018-12-12T08:07:30.221Z,2.45
2018-12-12T08:08:30.137Z,2.47
2018-12-12T08:09:30.071Z,2.43
2018-12-12T08:10:30.005Z,2.48
2018-12-12T08:11:29.938Z,2.48
2018-12-12T08:12:29.873Z,2.45
2018-12-12T08:13:29.813Z,2.45
2018-12-12T08:14:29.738Z,2.39
2018-12-12T08:15:29.662Z,2.58
2018-12-12T08:16:29.592Z,2.53
2018-12-12T08:17:29.527Z,2.51
2018-12-12T08:18:29.458Z,2.57
2018-12-12T08:19:29.386Z,2.48
2018-12-12T08:20:29.321Z,2.58
2018-12-12T08:21:29.253Z,2.53
2018-12-12T08:22:29.185Z,2.50
2018-12-12T08:23:29.127Z,2.53
2018-12-12T08:24:29.047Z,2.47
2018-12-12T08:25:28.980Z,2.57
2018-12-12T08:26:28.914Z,2.61
2018-12-12T08:27:28.844Z,2.60
2018-12-12T08:28:28.791Z,2.65
2018-12-12T08:29:28.713Z,2.72
2018-12-12T08:30:28.639Z,2.79
2018-12-12T08:31:28.598Z,2.66
2018-12-12T08:32:28.504Z,2.71
2018-12-12T08:33:28.450Z,2.58
2018-12-12T08:34:28.364Z,2.58
2018-12-12T08:35:28.300Z,2.66
2018-12-12T08:36:28.297Z,2.58
2018-12-12T08:37:28.245Z,2.47
2018-12-12T08:38:28.173Z,2.35
2018-12-12T08:39:28.026Z,2.43
2018-12-12T08:40:27.977Z,2.48
2018-12-12T08:41:27.892Z,2.43
2018-12-12T08:42:27.823Z,2.47
2018-12-12T08:43:27.753Z,2.47
2018-12-12T08:44:27.805Z,2.50
2018-12-12T08:45:27.619Z,2.53
2018-12-12T08:46:27.618Z,2.57
2018-12-12T08:47:27.551Z,2.47
2018-12-12T08:48:27.413Z,2.47
2018-12-12T08:49:27.343Z,2.43
2018-12-12T08:50:27.306Z,2.54
2018-12-12T08:51:27.222Z,2.43
2018-12-12T08:52:27.142Z,2.45
2018-12-12T08:53:27.081Z,2.39
2018-12-12T08:54:27.012Z,2.47
2018-12-12T08:55:26.958Z,2.50
2018-12-12T08:56:26.869Z,2.40
2018-12-12T08:57:26.800Z,2.50
2018-12-12T08:58:26.736Z,2.45
2018-12-12T08:59:26.682Z,2.48
2018-12-12T09:00:26.595Z,2.47
2018-12-12T09:01:26.524Z,2.51
2018-12-12T09:02:26.461Z,2.50
2018-12-12T09:03:26.393Z,2.47
2018-12-12T09:04:26.318Z,2.45
2018-12-12T09:05:26.256Z,2.53
2018-12-12T09:06:26.186Z,2.54
2018-12-12T09:07:26.125Z,2.54
2018-12-12T09:08:26.056Z,2.36
2018-12-12T09:09:25.997Z,2.51
2018-12-12T09:10:25.921Z,2.55
2018-12-12T09:11:25.849Z,2.51
2018-12-12T09:12:25.778Z,2.66
2018-12-12T09:13:25.708Z,2.72
2018-12-12T09:14:25.643Z,2.75
2018-12-12T09:15:25.571Z,2.73
2018-12-12T09:16:25.499Z,2.68
2018-12-12T09:17:25.437Z,2.72
2018-12-12T09:18:25.386Z,2.71
2018-12-12T09:19:25.331Z,2.71
2018-12-12T09:20:25.232Z,2.73
2018-12-12T09:21:25.195Z,2.76
2018-12-12T09:22:25.095Z,2.82
2018-12-12T09:23:25.032Z,2.75
2018-12-12T09:24:24.980Z,2.82
2018-12-12T09:25:24.898Z,2.91
2018-12-12T09:26:24.822Z,2.90
2018-12-12T09:27:24.754Z,2.89
2018-12-12T09:28:24.686Z,2.82
2018-12-12T09:29:24.630Z,2.84
2018-12-12T09:30:24.548Z,2.82
2018-12-12T09:31:24.480Z,2.91
2018-12-12T09:32:24.417Z,2.90
2018-12-12T09:33:24.883Z,2.90
2018-12-12T09:34:24.277Z,2.90
2018-12-12T09:35:24.209Z,2.90
2018-12-12T09:36:24.141Z,2.91
2018-12-12T09:37:24.072Z,2.99
2018-12-12T09:38:24.007Z,2.97
2018-12-12T09:39:23.949Z,3.04
2018-12-12T09:40:23.878Z,3.09
2018-12-12T09:41:23.800Z,3.17
2018-12-12T09:42:23.750Z,3.09
2018-12-12T09:43:23.665Z,3.11
2018-12-12T09:44:23.599Z,3.05
2018-12-12T09:45:23.527Z,3.02
2018-12-12T09:46:23.516Z,3.00
2018-12-12T09:47:23.415Z,2.91
2018-12-12T09:48:23.330Z,3.09
2018-12-12T09:49:23.264Z,3.08
2018-12-12T09:50:23.200Z,3.11
2018-12-12T09:51:23.127Z,3.14
2018-12-12T09:52:23.053Z,3.09
2018-12-12T09:53:22.987Z,3.17
2018-12-12T09:54:22.916Z,3.26
2018-12-12T09:55:22.856Z,3.26
2018-12-12T09:56:22.780Z,3.25
2018-12-12T09:57:22.715Z,3.17
2018-12-12T09:58:22.646Z,3.08
2018-12-12T09:59:22.581Z,3.07
2018-12-12T10:00:22.505Z,3.04
2018-12-12T10:01:22.442Z,2.93
2018-12-12T10:02:22.372Z,2.93
2018-12-12T10:03:22.305Z,3.08
2018-12-12T10:04:22.242Z,2.99
2018-12-12T10:05:22.168Z,2.96
2018-12-12T10:06:22.270Z,2.90
2018-12-12T10:07:22.033Z,2.84
2018-12-12T10:08:21.965Z,2.90
2018-12-12T10:09:21.929Z,2.93
2018-12-12T10:10:21.840Z,2.99
2018-12-12T10:11:21.757Z,3.09
2018-12-12T10:12:21.697Z,2.93
2018-12-12T10:13:21.623Z,3.02
2018-12-12T10:14:21.562Z,3.15
2018-12-12T10:15:21.496Z,3.09
2018-12-12T10:16:21.459Z,3.09
2018-12-12T10:17:21.369Z,2.99
2018-12-12T10:18:21.283Z,2.96
2018-12-12T10:19:21.218Z,2.94
2018-12-12T10:20:21.152Z,3.02
2018-12-12T10:21:21.096Z,3.05
2018-12-12T10:22:21.017Z,3.14
2018-12-12T10:23:20.949Z,3.09
2018-12-12T10:24:20.875Z,3.12
2018-12-12T10:25:20.808Z,3.26
2018-12-12T10:26:20.741Z,3.22
2018-12-12T10:27:20.672Z,3.20
2018-12-12T10:28:20.606Z,3.18
2018-12-12T10:29:20.538Z,3.30
2018-12-12T10:30:20.473Z,3.29
2018-12-12T10:31:20.415Z,3.36
2018-12-12T10:32:20.357Z,3.36
2018-12-12T10:33:20.263Z,3.32
2018-12-12T10:34:20.207Z,3.46
2018-12-12T10:35:20.131Z,3.42
2018-12-12T10:36:20.068Z,3.42
2018-12-12T10:37:19.988Z,3.41
2018-12-12T10:38:19.924Z,3.44
2018-12-12T10:39:19.856Z,3.41
2018-12-12T10:40:19.785Z,3.48
2018-12-12T10:41:19.714Z,3.44
2018-12-12T10:42:19.669Z,3.46
2018-12-12T10:43:19.582Z,3.59
2018-12-12T10:44:19.520Z,3.48
2018-12-12T10:45:19.454Z,3.60
2018-12-12T10:46:19.381Z,3.60
2018-12-12T10:47:19.324Z,3.64
2018-12-12T10:48:19.242Z,3.67
2018-12-12T10:49:19.177Z,3.76
2018-12-12T10:50:19.106Z,3.69
2018-12-12T10:51:19.045Z,3.56
2018-12-12T10:52:18.970Z,3.56
2018-12-12T10:53:18.907Z,3.48
2018-12-12T10:54:18.839Z,3.44
2018-12-12T10:55:18.777Z,3.41
2018-12-12T10:56:18.703Z,3.49
2018-12-12T10:57:18.640Z,3.37
2018-12-12T10:58:18.581Z,3.48
2018-12-12T10:59:18.506Z,3.36
2018-12-12T11:00:18.432Z,3.52
2018-12-12T11:01:18.363Z,3.48
2018-12-12T11:02:18.298Z,3.46
2018-12-12T11:03:18.229Z,3.60
2018-12-12T11:04:18.163Z,3.60
2018-12-12T11:05:18.127Z,3.52
2018-12-12T11:06:18.034Z,3.46
2018-12-12T11:07:17.963Z,3.49
2018-12-12T11:08:17.908Z,3.42
2018-12-12T11:09:17.853Z,3.36
2018-12-12T11:10:17.755Z,3.42
2018-12-12T11:11:17.688Z,3.41
2018-12-12T11:12:17.621Z,3.51
2018-12-12T11:13:17.560Z,3.51
2018-12-12T11:14:17.482Z,3.48
2018-12-12T11:15:17.419Z,3.59
2018-12-12T11:16:17.350Z,3.51
2018-12-12T11:17:17.288Z,3.48
2018-12-12T11:18:17.217Z,3.52
2018-12-12T11:19:17.149Z,3.62
2018-12-12T11:20:17.097Z,3.59
2018-12-12T11:21:17.016Z,3.55
2018-12-12T11:22:16.945Z,3.45
2018-12-12T11:23:16.922Z,3.46
2018-12-12T11:24:16.812Z,3.54
2018-12-12T11:25:16.740Z,3.48
2018-12-12T11:26:16.674Z,3.51
2018-12-12T11:27:16.607Z,3.55
2018-12-12T11:28:16.550Z,3.67
2018-12-12T11:29:16.494Z,3.42
2018-12-12T11:30:16.407Z,3.46
2018-12-12T11:31:16.342Z,3.44
2018-12-12T11:32:16.269Z,3.48
2018-12-12T11:33:16.201Z,3.44
2018-12-12T11:34:16.133Z,3.36
2018-12-12T11:35:16.069Z,3.46
2018-12-12T11:36:15.994Z,3.46
2018-12-12T11:37:15.948Z,3.51
2018-12-12T11:38:15.865Z,3.46
2018-12-12T11:39:15.795Z,3.49
2018-12-12T11:40:15.733Z,3.52
2018-12-12T11:41:15.663Z,3.46
2018-12-12T11:42:15.600Z,3.46
2018-12-12T11:43:15.523Z,3.46
2018-12-12T11:44:15.458Z,3.45
2018-12-12T11:45:15.391Z,3.42
2018-12-12T11:46:15.330Z,3.44
2018-12-12T11:47:15.251Z,3.45
2018-12-12T11:48:15.189Z,3.49
2018-12-12T11:49:15.120Z,3.49
2018-12-12T11:50:15.056Z,3.56
2018-12-12T11:51:14.987Z,3.46
2018-12-12T11:52:14.949Z,3.52
2018-12-12T11:53:14.887Z,3.51
2018-12-12T11:54:14.781Z,3.46
2018-12-12T11:55:14.717Z,3.51
2018-12-12T11:56:14.645Z,3.46
2018-12-12T11:57:14.579Z,3.62
2018-12-12T11:58:14.507Z,3.64
2018-12-12T11:59:14.447Z,3.69
2018-12-12T12:00:14.402Z,3.80
2018-12-12T12:01:14.310Z,3.66
2018-12-12T12:02:14.243Z,3.74
2018-12-12T12:03:14.175Z,3.81
2018-12-12T12:04:14.113Z,3.81
2018-12-12T12:05:14.035Z,3.80
2018-12-12T12:06:13.971Z,3.85
2018-12-12T12:07:13.904Z,3.82
2018-12-12T12:08:13.838Z,3.84
2018-12-12T12:09:13.778Z,3.88
2018-12-12T12:10:13.764Z,3.78
2018-12-12T12:11:13.652Z,3.76
2018-12-12T12:12:13.574Z,3.76
2018-12-12T12:13:13.501Z,3.81
2018-12-12T12:14:13.429Z,3.80
2018-12-12T12:15:13.371Z,3.82
2018-12-12T12:16:13.294Z,3.84
2018-12-12T12:17:13.230Z,3.91
2018-12-12T12:18:13.165Z,3.91
2018-12-12T12:19:13.099Z,3.73
2018-12-12T12:20:13.035Z,3.81
2018-12-12T12:21:12.979Z,3.87
2018-12-12T12:22:12.917Z,3.88
2018-12-12T12:23:12.825Z,3.82
2018-12-12T12:24:12.758Z,3.82
2018-12-12T12:25:12.688Z,3.74
2018-12-12T12:26:12.624Z,3.80
2018-12-12T12:27:12.552Z,3.88
2018-12-12T12:28:12.491Z,3.78
2018-12-12T12:29:12.418Z,3.90
2018-12-12T12:30:12.361Z,3.96
2018-12-12T12:31:12.289Z,3.85
2018-12-12T12:32:12.226Z,3.81
2018-12-12T12:33:12.159Z,3.74
2018-12-12T12:34:12.083Z,3.76
2018-12-12T12:35:12.017Z,3.80
2018-12-12T12:36:11.952Z,3.85
2018-12-12T12:37:11.884Z,3.82
2018-12-12T12:38:11.810Z,3.76
2018-12-12T12:39:11.746Z,3.66
2018-12-12T12:40:11.679Z,3.66
2018-12-12T12:41:11.614Z,3.62
2018-12-12T12:42:11.547Z,3.66
2018-12-12T12:43:11.482Z,3.80
2018-12-12T12:44:11.468Z,3.82
2018-12-12T12:45:11.339Z,3.84
2018-12-12T12:46:11.275Z,3.84
2018-12-12T12:47:11.208Z,3.82
2018-12-12T12:48:11.142Z,3.82
2018-12-12T12:49:11.082Z,3.76
2018-12-12T12:50:11.005Z,3.76
2018-12-12T12:51:10.945Z,3.74
2018-12-12T12:52:10.869Z,3.82
2018-12-12T12:53:10.801Z,3.78
2018-12-12T12:54:10.738Z,3.78
2018-12-12T12:55:10.677Z,3.82
2018-12-12T12:56:10.597Z,3.78
2018-12-12T12:57:10.533Z,3.66
2018-12-12T12:58:10.465Z,3.63
2018-12-12T12:59:10.399Z,3.69
2018-12-12T13:00:10.341Z,3.73
2018-12-12T13:01:10.273Z,3.84
2018-12-12T13:02:10.223Z,3.82
2018-12-12T13:03:10.129Z,3.76
2018-12-12T13:04:10.067Z,3.81
2018-12-12T13:05:09.994Z,3.88
2018-12-12T13:06:09.927Z,3.88
2018-12-12T13:07:09.855Z,3.85
2018-12-12T13:08:09.792Z,3.76
2018-12-12T13:09:09.724Z,3.80
2018-12-12T13:10:11.667Z,3.82
2018-12-12T13:11:14.875Z,3.81
2018-12-12T13:12:09.666Z,3.78
2018-12-12T13:13:09.507Z,3.78
2018-12-12T13:14:09.455Z,3.72
2018-12-12T13:15:09.342Z,3.82
2018-12-12T13:16:09.255Z,3.78
2018-12-12T13:17:09.187Z,3.81